Time;durP1;ratioP1;P1;durP2;ratioP2;P2;SDS_P1;SDS_P2;PMS_P1;PMS_P2;Temp;Humidity;BMP_temperature;BMP_pressure;BME280_temperature;BME280_humidity;BME280_pressure;Samples;Min_cycle;Max_cycle;Signal;HPM_P1;HPM_P2
2022/06/07 00:00:37;;;;;;;;;;;13.30;99.90;;;;;;5036544;28;37763;-50
2022/06/07 00:03:05;;;;;;;;;;;13.30;99.90;;;;;;5036867;28;36281;-52
2022/06/07 00:05:34;;;;;;;;;;;13.30;99.90;;;;;;5036717;28;36151;-51
2022/06/07 00:08:01;;;;;;;;;;;13.20;99.90;;;;;;5036435;28;37615;-48
2022/06/07 00:10:28;;;;;;;;;;;13.20;99.90;;;;;;5035874;28;39421;-50
2022/06/07 00:12:55;;;;;;;;;;;13.30;99.90;;;;;;5035815;28;37118;-48
2022/06/07 00:15:22;;;;;;;;;;;13.20;99.90;;;;;;5035867;28;36563;-48
2022/06/07 00:17:49;;;;;;;;;;;13.20;99.90;;;;;;5036138;28;37869;-48
2022/06/07 00:20:16;;;;;;;;;;;13.20;99.90;;;;;;5036043;28;36976;-50
2022/06/07 00:22:45;;;;;;;;;;;13.20;99.90;;;;;;5035448;28;38042;-48
2022/06/07 00:25:13;;;;;;;;;;;13.20;99.90;;;;;;5036882;28;35986;-53
2022/06/07 00:27:40;;;;;;;;;;;13.20;99.90;;;;;;5036153;28;36346;-53
2022/06/07 00:30:08;;;;;;;;;;;13.20;99.90;;;;;;5036456;28;39750;-53
2022/06/07 00:32:36;;;;;;;;;;;13.20;99.90;;;;;;5036246;28;37907;-53
2022/06/07 00:35:03;;;;;;;;;;;13.20;99.90;;;;;;5036061;28;35188;-53
2022/06/07 00:37:30;;;;;;;;;;;13.30;99.90;;;;;;5036144;28;37562;-52
2022/06/07 00:39:59;;;;;;;;;;;13.20;99.90;;;;;;5036672;28;39336;-54
2022/06/07 00:42:26;;;;;;;;;;;13.20;99.90;;;;;;5035926;28;37645;-53
2022/06/07 00:44:54;;;;;;;;;;;13.20;99.90;;;;;;5035900;28;36758;-52
2022/06/07 00:47:23;;;;;;;;;;;13.20;99.90;;;;;;5035955;28;38696;-53
2022/06/07 00:49:53;;;;;;;;;;;13.20;99.90;;;;;;5035633;28;36437;-50
2022/06/07 00:52:21;;;;;;;;;;;13.20;99.90;;;;;;5035497;28;37862;-52
2022/06/07 00:54:48;;;;;;;;;;;13.20;99.90;;;;;;5035009;28;37777;-52
2022/06/07 00:57:17;;;;;;;;;;;13.20;99.90;;;;;;5036236;28;36734;-53
2022/06/07 00:59:45;;;;;;;;;;;13.20;99.90;;;;;;5036938;28;37211;-51
2022/06/07 01:02:12;;;;;;;;;;;13.20;99.90;;;;;;5034539;28;37415;-53
2022/06/07 01:04:39;;;;;;;;;;;13.20;99.90;;;;;;5034704;28;36640;-52
2022/06/07 01:12:37;;;;;;;;;;;13.20;99.90;;;;;;5036019;28;38440;-51
2022/06/07 01:15:05;;;;;;;;;;;13.20;99.90;;;;;;5034877;28;36958;-52
2022/06/07 01:17:32;;;;;;;;;;;13.20;99.90;;;;;;5035778;28;38079;-49
2022/06/07 01:19:59;;;;;;;;;;;13.20;99.90;;;;;;5034078;28;37831;-52
2022/06/07 01:22:27;;;;;;;;;;;13.20;99.90;;;;;;5033714;28;39008;-53
2022/06/07 01:24:54;;;;;;;;;;;13.20;99.90;;;;;;5032975;28;37359;-51
2022/06/07 01:27:22;;;;;;;;;;;13.20;99.90;;;;;;5034079;28;36377;-51
2022/06/07 01:29:49;;;;;;;;;;;13.20;99.90;;;;;;5034936;28;39496;-53
2022/06/07 01:32:16;;;;;;;;;;;13.20;99.90;;;;;;5035554;28;35899;-52
2022/06/07 01:34:44;;;;;;;;;;;13.30;99.90;;;;;;5033595;28;38438;-52
2022/06/07 01:37:12;;;;;;;;;;;13.20;99.90;;;;;;5034997;28;39645;-50
2022/06/07 01:42:25;;;;;;;;;;;13.30;99.90;;;;;;5036159;28;38027;-52
2022/06/07 01:44:52;;;;;;;;;;;13.30;99.90;;;;;;5034326;28;36542;-52
2022/06/07 01:47:21;;;;;;;;;;;13.30;99.90;;;;;;5035098;28;38405;-52
2022/06/07 01:49:49;;;;;;;;;;;13.20;99.90;;;;;;5034041;28;37408;-52
2022/06/07 01:52:17;;;;;;;;;;;13.30;99.90;;;;;;5034131;28;35905;-51
2022/06/07 01:54:46;;;;;;;;;;;13.30;99.90;;;;;;5034565;28;37760;-53
2022/06/07 01:57:13;;;;;;;;;;;13.30;99.90;;;;;;5033377;28;38763;-53
2022/06/07 01:59:40;;;;;;;;;;;13.30;99.90;;;;;;5035162;28;37891;-51
2022/06/07 02:02:08;;;;;;;;;;;13.30;99.90;;;;;;5034740;28;37798;-51
2022/06/07 02:04:35;;;;;;;;;;;13.30;99.90;;;;;;5035865;28;35304;-53
2022/06/07 02:07:03;;;;;;;;;;;13.30;99.90;;;;;;5033969;28;37483;-52
2022/06/07 02:09:30;;;;;;;;;;;13.30;99.90;;;;;;5034609;28;39324;-49
2022/06/07 02:11:59;;;;;;;;;;;13.30;99.90;;;;;;5033862;28;37538;-53
2022/06/07 02:14:26;;;;;;;;;;;13.30;99.90;;;;;;5035008;28;35345;-52
2022/06/07 02:16:53;;;;;;;;;;;13.30;99.90;;;;;;5033453;28;38952;-52
2022/06/07 02:19:21;;;;;;;;;;;13.30;99.90;;;;;;5033599;28;38676;-53
2022/06/07 02:21:49;;;;;;;;;;;13.30;99.90;;;;;;5033611;28;30347;-51
2022/06/07 02:24:16;;;;;;;;;;;13.30;99.90;;;;;;5033180;28;36546;-53
2022/06/07 02:26:45;;;;;;;;;;;13.30;99.90;;;;;;5033293;28;37624;-52
2022/06/07 02:29:14;;;;;;;;;;;13.40;99.90;;;;;;5034444;28;38969;-53
2022/06/07 02:31:43;;;;;;;;;;;13.30;99.90;;;;;;5034078;28;35742;-49
2022/06/07 02:34:11;;;;;;;;;;;13.40;99.90;;;;;;5033655;28;38943;-51
2022/06/07 02:36:38;;;;;;;;;;;13.40;99.90;;;;;;5033917;28;38626;-52
2022/06/07 02:39:05;;;;;;;;;;;13.40;99.90;;;;;;5033945;28;38660;-51
2022/06/07 02:41:33;;;;;;;;;;;13.40;99.90;;;;;;5034395;28;41005;-52
2022/06/07 02:44:01;;;;;;;;;;;13.40;99.90;;;;;;5034625;28;36629;-52
2022/06/07 02:46:29;;;;;;;;;;;13.40;99.90;;;;;;5033660;28;37890;-53
2022/06/07 02:48:56;;;;;;;;;;;13.40;99.90;;;;;;5033936;28;39465;-51
2022/06/07 02:51:23;;;;;;;;;;;13.40;99.90;;;;;;5033990;28;37127;-52
2022/06/07 02:53:51;;;;;;;;;;;13.40;99.90;;;;;;5033064;28;36897;-55
2022/06/07 02:56:18;;;;;;;;;;;13.40;99.90;;;;;;5033417;28;37358;-51
2022/06/07 02:58:45;;;;;;;;;;;13.40;99.90;;;;;;5033780;28;37907;-53
2022/06/07 03:01:13;;;;;;;;;;;13.40;99.90;;;;;;5033847;28;37627;-53
2022/06/07 03:03:42;;;;;;;;;;;13.40;99.90;;;;;;5033963;28;35068;-53
2022/06/07 03:06:09;;;;;;;;;;;13.40;99.90;;;;;;5033638;28;36587;-53
2022/06/07 03:08:36;;;;;;;;;;;13.40;99.90;;;;;;5033263;28;38744;-53
2022/06/07 03:11:03;;;;;;;;;;;13.40;99.90;;;;;;5033409;28;38240;-51
2022/06/07 03:13:31;;;;;;;;;;;13.40;99.90;;;;;;5034499;28;37022;-52
2022/06/07 03:15:58;;;;;;;;;;;13.40;99.90;;;;;;5032745;28;37547;-52
2022/06/07 03:18:25;;;;;;;;;;;13.40;99.90;;;;;;5033851;28;36693;-53
2022/06/07 03:20:53;;;;;;;;;;;13.40;99.90;;;;;;5032907;28;38429;-53
2022/06/07 03:23:20;;;;;;;;;;;13.40;99.90;;;;;;5033350;28;37049;-53
2022/06/07 03:25:47;;;;;;;;;;;13.50;99.90;;;;;;5032744;28;36686;-52
2022/06/07 03:28:14;;;;;;;;;;;13.40;99.90;;;;;;5033411;28;40318;-52
2022/06/07 03:30:41;;;;;;;;;;;13.40;99.90;;;;;;5034045;28;36088;-53
2022/06/07 03:33:09;;;;;;;;;;;13.50;99.90;;;;;;5033192;28;37070;-52
2022/06/07 03:35:36;;;;;;;;;;;13.50;99.90;;;;;;5032865;28;37950;-53
2022/06/07 03:38:04;;;;;;;;;;;13.40;99.90;;;;;;5033169;28;39016;-52
2022/06/07 03:40:46;;;;;;;;;;;13.40;99.90;;;;;;5032211;28;37876;-53
2022/06/07 03:43:13;;;;;;;;;;;13.40;99.90;;;;;;5033978;28;36412;-51
2022/06/07 03:45:40;;;;;;;;;;;13.40;99.90;;;;;;5033208;28;37547;-50
2022/06/07 03:48:08;;;;;;;;;;;13.40;99.90;;;;;;5032869;28;38633;-53
2022/06/07 03:50:36;;;;;;;;;;;13.40;99.90;;;;;;5033522;28;37865;-53
2022/06/07 03:53:03;;;;;;;;;;;13.40;99.90;;;;;;5032722;28;36628;-51
2022/06/07 03:55:31;;;;;;;;;;;13.40;99.90;;;;;;5032815;28;37191;-53
2022/06/07 03:57:58;;;;;;;;;;;13.40;99.90;;;;;;5031999;28;38954;-52
2022/06/07 04:00:25;;;;;;;;;;;13.30;99.90;;;;;;5032739;28;37194;-51
2022/06/07 04:02:52;;;;;;;;;;;13.30;99.90;;;;;;5033174;28;37466;-52
2022/06/07 04:05:19;;;;;;;;;;;13.30;99.90;;;;;;5033371;28;37819;-53
2022/06/07 04:10:32;;;;;;;;;;;13.20;99.90;;;;;;5033603;28;38575;-54
2022/06/07 04:12:59;;;;;;;;;;;13.20;99.90;;;;;;5034130;28;36294;-52
2022/06/07 04:15:26;;;;;;;;;;;13.10;99.90;;;;;;5032679;28;36599;-52
2022/06/07 04:17:53;;;;;;;;;;;13.10;99.90;;;;;;5032919;28;38963;-52
2022/06/07 04:20:21;;;;;;;;;;;13.10;99.90;;;;;;5032703;28;38591;-52
2022/06/07 04:22:48;;;;;;;;;;;13.10;99.90;;;;;;5032685;28;36150;-52
2022/06/07 04:25:15;;;;;;;;;;;13.10;99.90;;;;;;5032170;28;37516;-53
2022/06/07 04:27:44;;;;;;;;;;;13.00;99.90;;;;;;5033355;28;38432;-53
2022/06/07 04:30:11;;;;;;;;;;;13.00;99.90;;;;;;5031631;28;35880;-52
2022/06/07 04:32:45;;;;;;;;;;;13.00;99.90;;;;;;5031988;28;39095;-53
2022/06/07 04:35:13;;;;;;;;;;;13.00;99.90;;;;;;5033366;28;39274;-53
2022/06/07 04:37:40;;;;;;;;;;;13.00;99.90;;;;;;5034621;28;38101;-54
2022/06/07 04:40:08;;;;;;;;;;;13.00;99.90;;;;;;5035387;28;36987;-54
2022/06/07 04:42:35;;;;;;;;;;;13.00;99.90;;;;;;5035620;28;38122;-53
2022/06/07 04:45:03;;;;;;;;;;;13.00;99.90;;;;;;5037042;28;36641;-53
2022/06/07 04:47:30;;;;;;;;;;;13.00;99.90;;;;;;5036292;28;38069;-52
2022/06/07 04:49:57;;;;;;;;;;;13.00;99.90;;;;;;5037065;28;38221;-52
2022/06/07 04:52:24;;;;;;;;;;;13.10;99.90;;;;;;5035088;28;36290;-53
2022/06/07 04:54:51;;;;;;;;;;;13.10;99.90;;;;;;5034682;28;38094;-52
2022/06/07 04:57:19;;;;;;;;;;;13.10;99.90;;;;;;5034385;28;39247;-53
2022/06/07 04:59:46;;;;;;;;;;;13.10;99.90;;;;;;5034999;28;39925;-50
2022/06/07 05:02:14;;;;;;;;;;;13.10;99.90;;;;;;5035118;28;36103;-54
2022/06/07 05:04:41;;;;;;;;;;;13.20;99.90;;;;;;5036284;28;37582;-54
2022/06/07 05:07:08;;;;;;;;;;;13.10;99.90;;;;;;5034496;28;40027;-52
2022/06/07 05:09:35;;;;;;;;;;;13.10;99.90;;;;;;5035462;28;37142;-52
2022/06/07 05:12:03;;;;;;;;;;;13.10;99.90;;;;;;5034990;28;37785;-53
2022/06/07 05:14:30;;;;;;;;;;;13.20;99.90;;;;;;5035017;28;39007;-51
2022/06/07 05:16:58;;;;;;;;;;;13.10;99.90;;;;;;5035823;28;36720;-52
2022/06/07 05:19:29;;;;;;;;;;;13.20;99.90;;;;;;5035940;28;36840;-54
2022/06/07 05:21:56;;;;;;;;;;;13.20;99.90;;;;;;5035666;28;36479;-54
2022/06/07 05:24:23;;;;;;;;;;;13.20;99.90;;;;;;5032788;28;38435;-54
2022/06/07 05:26:51;;;;;;;;;;;13.20;99.90;;;;;;5035287;28;39855;-55
2022/06/07 05:29:21;;;;;;;;;;;13.10;99.90;;;;;;5034675;28;37391;-55
2022/06/07 05:31:49;;;;;;;;;;;13.20;99.90;;;;;;5034861;28;36359;-55
2022/06/07 05:34:16;;;;;;;;;;;13.20;99.90;;;;;;5035046;28;36398;-54
2022/06/07 05:36:45;;;;;;;;;;;13.20;99.90;;;;;;5034336;28;39060;-53
2022/06/07 05:39:17;;;;;;;;;;;13.20;99.90;;;;;;5034268;28;37536;-54
2022/06/07 05:41:44;;;;;;;;;;;13.30;99.90;;;;;;5035024;28;35048;-54
2022/06/07 05:44:11;;;;;;;;;;;13.20;99.90;;;;;;5034186;28;38623;-53
2022/06/07 05:46:38;;;;;;;;;;;13.20;99.90;;;;;;5034931;28;36703;-53
2022/06/07 05:49:05;;;;;;;;;;;13.20;99.90;;;;;;5034629;28;37881;-52
2022/06/07 05:51:32;;;;;;;;;;;13.20;99.90;;;;;;5035271;28;36740;-53
2022/06/07 05:54:01;;;;;;;;;;;13.20;99.90;;;;;;5035746;28;39280;-53
2022/06/07 05:56:28;;;;;;;;;;;13.20;99.90;;;;;;5034330;28;38598;-54
2022/06/07 05:58:55;;;;;;;;;;;13.10;99.90;;;;;;5034426;28;35930;-53
2022/06/07 06:01:22;;;;;;;;;;;13.10;99.90;;;;;;5033009;28;36398;-53
2022/06/07 06:03:49;;;;;;;;;;;13.10;99.90;;;;;;5034619;28;37583;-52
2022/06/07 06:06:16;;;;;;;;;;;13.10;99.90;;;;;;5034745;28;38548;-52
2022/06/07 06:11:29;;;;;;;;;;;13.00;99.90;;;;;;5034739;28;38585;-52
2022/06/07 06:13:56;;;;;;;;;;;13.00;99.90;;;;;;5034497;28;37858;-53
2022/06/07 06:16:24;;;;;;;;;;;13.00;99.90;;;;;;5034342;28;38280;-53
2022/06/07 06:18:52;;;;;;;;;;;13.00;99.90;;;;;;5035199;28;39318;-51
2022/06/07 06:21:20;;;;;;;;;;;12.90;99.90;;;;;;5034735;28;37651;-53
2022/06/07 06:23:47;;;;;;;;;;;13.00;99.90;;;;;;5033960;28;37961;-54
2022/06/07 06:26:16;;;;;;;;;;;13.00;99.90;;;;;;5034835;28;39554;-52
2022/06/07 06:28:44;;;;;;;;;;;13.00;99.90;;;;;;5035012;28;38505;-53
2022/06/07 06:31:12;;;;;;;;;;;12.90;99.90;;;;;;5034290;28;36461;-53
2022/06/07 06:33:39;;;;;;;;;;;12.90;99.90;;;;;;5033587;28;39611;-50
2022/06/07 06:36:07;;;;;;;;;;;13.00;99.90;;;;;;5022165;28;38165;-52
2022/06/07 06:38:35;;;;;;;;;;;13.00;99.90;;;;;;5031895;28;37035;-54
2022/06/07 06:41:07;;;;;;;;;;;13.00;99.90;;;;;;5033933;28;35091;-52
2022/06/07 06:43:34;;;;;;;;;;;13.00;99.90;;;;;;5033586;28;38157;-53
2022/06/07 06:46:05;;;;;;;;;;;13.00;99.90;;;;;;5032678;28;37893;-52
2022/06/07 06:48:32;;;;;;;;;;;13.00;99.90;;;;;;5034056;28;37197;-52
2022/06/07 06:51:00;;;;;;;;;;;13.10;99.90;;;;;;5033690;28;36867;-52
2022/06/07 06:53:27;;;;;;;;;;;13.10;99.90;;;;;;5034020;28;37537;-52
2022/06/07 06:55:55;;;;;;;;;;;13.10;99.90;;;;;;5032369;28;38510;-53
2022/06/07 06:58:24;;;;;;;;;;;13.20;99.90;;;;;;5023640;28;39414;-53
2022/06/07 07:01:01;;;;;;;;;;;13.20;99.90;;;;;;5023460;28;36441;-53
2022/06/07 07:03:30;;;;;;;;;;;13.20;99.90;;;;;;5026857;28;38511;-54
2022/06/07 07:05:57;;;;;;;;;;;13.20;99.90;;;;;;5026805;28;38546;-51
2022/06/07 07:08:24;;;;;;;;;;;13.30;99.90;;;;;;5027499;28;38772;-53
2022/06/07 07:11:01;;;;;;;;;;;13.30;99.90;;;;;;5027315;28;37806;-52
2022/06/07 07:13:29;;;;;;;;;;;13.30;99.90;;;;;;5026067;28;38654;-51
2022/06/07 07:15:57;;;;;;;;;;;13.40;99.90;;;;;;5024491;28;39366;-50
2022/06/07 07:18:24;;;;;;;;;;;13.40;99.90;;;;;;5027089;28;38778;-52
2022/06/07 07:20:53;;;;;;;;;;;13.40;99.90;;;;;;5026422;28;36107;-52
2022/06/07 07:23:21;;;;;;;;;;;13.50;99.90;;;;;;5025876;28;40192;-52
2022/06/07 07:25:49;;;;;;;;;;;13.50;99.90;;;;;;5027722;28;38957;-49
2022/06/07 07:28:17;;;;;;;;;;;13.60;99.90;;;;;;5026995;28;37240;-54
2022/06/07 07:30:44;;;;;;;;;;;13.50;99.90;;;;;;5026534;28;35407;-51
2022/06/07 07:33:11;;;;;;;;;;;13.60;99.90;;;;;;5027973;28;39320;-52
2022/06/07 07:35:38;;;;;;;;;;;13.60;99.90;;;;;;5027936;28;37780;-52
2022/06/07 07:38:06;;;;;;;;;;;13.70;99.90;;;;;;5028619;28;39047;-51
2022/06/07 07:40:33;;;;;;;;;;;13.80;99.90;;;;;;5027022;28;38743;-51
2022/06/07 07:43:00;;;;;;;;;;;13.80;99.90;;;;;;5027263;28;37667;-52
2022/06/07 07:45:28;;;;;;;;;;;13.80;99.90;;;;;;5028222;28;38922;-52
2022/06/07 07:47:55;;;;;;;;;;;13.80;99.90;;;;;;5026925;28;37341;-50
2022/06/07 07:50:22;;;;;;;;;;;13.70;99.90;;;;;;5028895;28;34989;-52
2022/06/07 07:52:49;;;;;;;;;;;13.80;99.90;;;;;;5027943;28;37792;-50
2022/06/07 07:55:18;;;;;;;;;;;13.70;99.90;;;;;;5027105;28;36698;-51
2022/06/07 07:57:45;;;;;;;;;;;13.70;99.90;;;;;;5026143;28;35910;-52
2022/06/07 08:00:12;;;;;;;;;;;13.70;99.90;;;;;;5026935;28;36532;-52
2022/06/07 08:02:39;;;;;;;;;;;13.70;99.90;;;;;;5026711;28;39118;-52
2022/06/07 08:05:07;;;;;;;;;;;13.70;99.90;;;;;;5028282;28;37971;-52
2022/06/07 08:07:34;;;;;;;;;;;13.70;99.90;;;;;;5027864;28;37150;-53
2022/06/07 08:10:02;;;;;;;;;;;13.60;99.90;;;;;;5028160;28;36788;-51
2022/06/07 08:12:31;;;;;;;;;;;13.60;99.90;;;;;;5030081;28;37486;-51
2022/06/07 08:14:58;;;;;;;;;;;13.70;99.90;;;;;;5030987;28;36496;-52
2022/06/07 08:17:26;;;;;;;;;;;13.70;99.90;;;;;;5031744;28;38770;-52
2022/06/07 08:19:53;;;;;;;;;;;13.70;99.90;;;;;;5031159;28;36942;-53
2022/06/07 08:22:20;;;;;;;;;;;13.80;99.90;;;;;;5030836;28;37472;-53
2022/06/07 08:24:48;;;;;;;;;;;13.80;99.90;;;;;;5031932;28;38814;-54
2022/06/07 08:27:15;;;;;;;;;;;13.90;99.90;;;;;;5029957;28;38765;-50
2022/06/07 08:29:43;;;;;;;;;;;13.90;99.90;;;;;;5030783;28;36794;-53
2022/06/07 08:32:10;;;;;;;;;;;14.00;99.90;;;;;;5030469;28;38079;-54
2022/06/07 08:37:34;;;;;;;;;;;14.00;99.90;;;;;;5032613;28;40158;-52
2022/06/07 08:40:02;;;;;;;;;;;14.10;99.90;;;;;;5031916;28;37962;-50
2022/06/07 08:42:30;;;;;;;;;;;14.10;99.90;;;;;;5030653;28;37330;-53
2022/06/07 08:45:00;;;;;;;;;;;14.20;99.90;;;;;;5032246;28;38649;-52
2022/06/07 08:47:31;;;;;;;;;;;14.20;99.90;;;;;;5030712;28;37404;-52
2022/06/07 08:49:59;;;;;;;;;;;14.30;99.90;;;;;;5030874;28;35774;-52
2022/06/07 08:52:28;;;;;;;;;;;14.30;99.90;;;;;;5029712;28;38505;-49
2022/06/07 08:54:58;;;;;;;;;;;14.40;99.90;;;;;;5030772;28;37626;-50
2022/06/07 08:57:26;;;;;;;;;;;14.40;99.90;;;;;;5030333;28;38396;-51
2022/06/07 08:59:55;;;;;;;;;;;14.40;99.90;;;;;;5030066;28;36454;-53
2022/06/07 09:02:41;;;;;;;;;;;14.60;99.90;;;;;;5030416;28;39394;-52
2022/06/07 09:05:11;;;;;;;;;;;14.70;99.90;;;;;;5031429;28;36655;-53
2022/06/07 09:07:38;;;;;;;;;;;14.70;99.90;;;;;;5030310;28;37501;-54
2022/06/07 09:13:01;;;;;;;;;;;14.80;99.90;;;;;;5031364;28;40239;-53
2022/06/07 09:15:30;;;;;;;;;;;14.90;99.90;;;;;;5030328;28;36683;-52
2022/06/07 09:18:01;;;;;;;;;;;14.90;99.90;;;;;;5030551;28;35902;-51
2022/06/07 09:20:32;;;;;;;;;;;14.90;99.90;;;;;;5030086;28;36169;-53
2022/06/07 09:23:00;;;;;;;;;;;14.80;99.90;;;;;;5029401;28;37656;-48
2022/06/07 09:25:34;;;;;;;;;;;14.80;99.90;;;;;;5031253;28;37672;-48
2022/06/07 09:28:02;;;;;;;;;;;14.70;99.90;;;;;;5030010;28;36987;-49
2022/06/07 09:30:30;;;;;;;;;;;14.60;99.90;;;;;;5029384;28;34765;-54
2022/06/07 09:33:06;;;;;;;;;;;14.60;99.90;;;;;;5028566;28;36668;-52
2022/06/07 09:35:36;;;;;;;;;;;14.60;99.90;;;;;;5030007;28;39732;-50
2022/06/07 09:38:05;;;;;;;;;;;14.50;99.90;;;;;;5029997;28;37444;-53
2022/06/07 09:40:34;;;;;;;;;;;14.40;99.90;;;;;;5029053;28;37393;-49
2022/06/07 09:43:06;;;;;;;;;;;14.30;99.90;;;;;;5026669;28;38556;-52
2022/06/07 09:45:36;;;;;;;;;;;14.40;99.90;;;;;;5030345;28;40431;-50
2022/06/07 09:50:59;;;;;;;;;;;14.40;99.90;;;;;;5130053;27;19977;-52
2022/06/07 09:53:26;;;;;;;;;;;14.40;99.90;;;;;;5113443;27;36582;-52
2022/06/07 09:56:04;;;;;;;;;;;14.40;99.90;;;;;;5113577;27;36171;-52
2022/06/07 09:58:41;;;;;;;;;;;14.40;99.90;;;;;;5113661;27;38640;-50
2022/06/07 10:01:12;;;;;;;;;;;14.40;99.90;;;;;;5114684;27;38838;-50
2022/06/07 10:03:42;;;;;;;;;;;14.50;99.90;;;;;;5113698;27;35422;-51
2022/06/07 10:06:13;;;;;;;;;;;14.50;99.90;;;;;;5113831;27;37037;-50
2022/06/07 10:08:46;;;;;;;;;;;14.50;99.90;;;;;;5113529;27;37945;-49
2022/06/07 10:11:16;;;;;;;;;;;14.50;99.90;;;;;;5112189;27;37388;-46
2022/06/07 10:13:47;;;;;;;;;;;14.50;99.90;;;;;;5110859;27;36474;-49
2022/06/07 10:16:21;;;;;;;;;;;14.50;99.90;;;;;;5112405;27;34808;-48
2022/06/07 10:18:52;;;;;;;;;;;14.50;99.90;;;;;;5111106;27;37374;-49
2022/06/07 10:21:26;;;;;;;;;;;14.50;99.90;;;;;;5110019;27;37181;-50
2022/06/07 10:24:01;;;;;;;;;;;14.50;99.90;;;;;;5111948;27;36656;-51
2022/06/07 10:26:32;;;;;;;;;;;14.60;99.90;;;;;;5111695;27;36138;-50
2022/06/07 10:29:08;;;;;;;;;;;14.60;99.90;;;;;;5111362;27;37655;-51
2022/06/07 10:31:44;;;;;;;;;;;14.60;99.90;;;;;;5111481;27;37752;-46
2022/06/07 10:34:16;;;;;;;;;;;14.60;99.90;;;;;;5110145;27;36478;-49
2022/06/07 10:36:51;;;;;;;;;;;14.60;99.90;;;;;;5108343;27;36273;-48
2022/06/07 10:39:22;;;;;;;;;;;14.50;99.90;;;;;;5109857;27;38262;-46
2022/06/07 10:41:54;;;;;;;;;;;14.60;99.90;;;;;;5108544;27;37547;-49
2022/06/07 10:44:28;;;;;;;;;;;14.50;99.90;;;;;;5108887;27;35273;-50
2022/06/07 10:46:56;;;;;;;;;;;14.50;99.90;;;;;;5110117;27;36632;-50
2022/06/07 10:49:25;;;;;;;;;;;14.60;99.90;;;;;;5108739;27;37813;-48
2022/06/07 10:54:43;;;;;;;;;;;14.50;99.90;;;;;;5110245;27;36405;-47
2022/06/07 10:57:18;;;;;;;;;;;14.50;99.90;;;;;;5109771;27;36538;-46
2022/06/07 10:59:46;;;;;;;;;;;14.50;99.90;;;;;;5108440;27;36982;-46
2022/06/07 11:02:19;;;;;;;;;;;14.60;99.90;;;;;;5095689;27;36765;-45
2022/06/07 11:10:25;;;;;;;;;;;14.70;99.90;;;;;;5096119;27;38983;-46
2022/06/07 11:12:56;;;;;;;;;;;14.80;99.90;;;;;;5096112;27;39881;-47
2022/06/07 11:15:26;;;;;;;;;;;14.90;99.90;;;;;;5096876;27;38118;-46
2022/06/07 11:17:56;;;;;;;;;;;14.90;99.90;;;;;;5096987;27;36820;-48
2022/06/07 11:20:25;;;;;;;;;;;15.00;99.90;;;;;;5096360;27;38947;-50
2022/06/07 11:22:55;;;;;;;;;;;15.10;99.90;;;;;;5096790;27;37201;-49
2022/06/07 11:25:28;;;;;;;;;;;15.00;99.90;;;;;;5097706;27;36354;-48
2022/06/07 11:27:57;;;;;;;;;;;15.10;99.90;;;;;;5096899;27;37486;-50
2022/06/07 11:30:41;;;;;;;;;;;15.20;99.90;;;;;;5096522;27;37816;-54
2022/06/07 11:33:23;;;;;;;;;;;15.30;99.90;;;;;;5096459;27;37836;-51
2022/06/07 11:35:52;;;;;;;;;;;15.30;99.90;;;;;;5095285;27;37085;-52
2022/06/07 11:38:25;;;;;;;;;;;15.50;99.90;;;;;;5095657;27;36180;-50
2022/06/07 11:41:36;;;;;;;;;;;15.60;99.90;;;;;;5096150;27;37797;-51
2022/06/07 11:43:49;;;;;;;;;;;15.70;99.90;;;;;;5097103;27;36939;-54
2022/06/07 11:46:22;;;;;;;;;;;15.90;99.90;;;;;;5093120;27;36996;-48
2022/06/07 11:48:49;;;;;;;;;;;16.00;99.90;;;;;;5096533;27;36344;-50
2022/06/07 11:51:18;;;;;;;;;;;16.20;99.90;;;;;;5096505;27;37287;-52
2022/06/07 11:53:52;;;;;;;;;;;16.30;99.90;;;;;;5098058;27;38682;-51
2022/06/07 11:56:27;;;;;;;;;;;16.30;99.90;;;;;;5096123;27;36698;-48
2022/06/07 11:58:56;;;;;;;;;;;16.30;99.90;;;;;;5097017;27;35085;-50
2022/06/07 12:01:32;;;;;;;;;;;16.40;99.90;;;;;;5098958;27;38641;-51
2022/06/07 12:04:22;;;;;;;;;;;16.40;99.90;;;;;;5098693;27;37426;-48
2022/06/07 12:06:50;;;;;;;;;;;16.40;99.90;;;;;;5098792;27;36711;-52
2022/06/07 12:09:19;;;;;;;;;;;16.40;99.90;;;;;;5099200;27;37684;-50
2022/06/07 12:11:46;;;;;;;;;;;16.40;99.90;;;;;;5098554;27;37954;-48
2022/06/07 12:14:29;;;;;;;;;;;16.30;99.90;;;;;;5098501;27;37151;-48
2022/06/07 12:16:58;;;;;;;;;;;16.40;99.90;;;;;;5098822;27;38194;-48
2022/06/07 12:19:25;;;;;;;;;;;16.40;99.90;;;;;;5099067;27;35056;-49
2022/06/07 12:21:55;;;;;;;;;;;16.40;99.90;;;;;;5097342;27;37745;-49
2022/06/07 12:24:24;;;;;;;;;;;16.40;99.90;;;;;;5098301;27;37114;-52
2022/06/07 12:26:52;;;;;;;;;;;16.30;99.90;;;;;;5097500;27;36847;-48
2022/06/07 12:29:20;;;;;;;;;;;16.30;99.90;;;;;;5099270;27;35200;-49
2022/06/07 12:31:49;;;;;;;;;;;16.30;99.90;;;;;;5097874;27;36611;-51
2022/06/07 12:34:17;;;;;;;;;;;16.20;99.90;;;;;;5098644;27;35930;-51
2022/06/07 12:36:46;;;;;;;;;;;16.20;99.90;;;;;;5096867;27;35522;-48
2022/06/07 12:39:14;;;;;;;;;;;16.20;99.90;;;;;;5096416;27;35149;-48
2022/06/07 12:41:48;;;;;;;;;;;16.20;99.90;;;;;;5097728;27;36414;-48
2022/06/07 12:44:21;;;;;;;;;;;16.10;99.90;;;;;;5096570;27;37070;-49
2022/06/07 12:46:48;;;;;;;;;;;16.00;99.90;;;;;;5098260;27;35475;-50
2022/06/07 12:49:20;;;;;;;;;;;16.00;99.90;;;;;;5098082;27;37032;-49
2022/06/07 12:51:54;;;;;;;;;;;16.00;99.90;;;;;;5098208;27;37451;-50
2022/06/07 12:54:22;;;;;;;;;;;16.00;99.90;;;;;;5099293;27;36640;-49
2022/06/07 12:56:52;;;;;;;;;;;15.90;99.90;;;;;;5097107;27;38157;-47
2022/06/07 12:59:22;;;;;;;;;;;15.90;99.90;;;;;;5097128;27;34999;-52
2022/06/07 13:01:50;;;;;;;;;;;16.00;99.90;;;;;;5097712;27;39031;-48
2022/06/07 13:04:24;;;;;;;;;;;16.20;99.90;;;;;;5098782;27;37679;-50
2022/06/07 13:06:58;;;;;;;;;;;16.30;99.90;;;;;;5098367;27;36602;-52
2022/06/07 13:09:25;;;;;;;;;;;16.40;99.90;;;;;;5098073;27;35142;-51
2022/06/07 13:11:53;;;;;;;;;;;16.60;99.90;;;;;;5097701;27;39320;-48
2022/06/07 13:14:21;;;;;;;;;;;16.60;99.90;;;;;;5098391;27;37326;-49
2022/06/07 13:16:48;;;;;;;;;;;16.70;99.90;;;;;;5097333;27;36357;-50
2022/06/07 13:19:26;;;;;;;;;;;16.70;99.90;;;;;;5097377;27;35808;-47
2022/06/07 13:22:01;;;;;;;;;;;16.70;99.90;;;;;;5097986;27;37438;-51
2022/06/07 13:24:29;;;;;;;;;;;16.70;99.90;;;;;;5096911;27;36081;-51
2022/06/07 13:27:00;;;;;;;;;;;16.70;99.90;;;;;;5098262;27;37354;-48
2022/06/07 13:29:28;;;;;;;;;;;16.60;99.90;;;;;;5096934;27;36968;-50
2022/06/07 13:31:56;;;;;;;;;;;16.60;99.90;;;;;;5097749;27;37466;-49
2022/06/07 13:34:24;;;;;;;;;;;16.50;99.90;;;;;;5097539;27;39126;-47
2022/06/07 13:37:09;;;;;;;;;;;16.40;99.90;;;;;;5097104;27;37340;-50
2022/06/07 13:39:38;;;;;;;;;;;16.40;99.90;;;;;;5096762;27;37804;-51
2022/06/07 13:42:12;;;;;;;;;;;16.30;99.90;;;;;;5096206;27;37975;-50
2022/06/07 13:44:42;;;;;;;;;;;16.40;99.90;;;;;;5097053;27;37316;-49
2022/06/07 13:47:21;;;;;;;;;;;16.30;99.90;;;;;;5098074;27;36483;-49
2022/06/07 13:55:46;;;;;;;;;;;16.20;99.90;;;;;;5096623;27;38370;-47
2022/06/07 13:58:15;;;;;;;;;;;16.20;99.90;;;;;;5096011;27;37720;-51
2022/06/07 14:00:42;;;;;;;;;;;16.20;99.90;;;;;;5097212;27;36223;-51
2022/06/07 14:03:16;;;;;;;;;;;16.20;99.90;;;;;;5097035;27;36469;-49
2022/06/07 14:05:43;;;;;;;;;;;16.20;99.90;;;;;;5096538;27;37247;-48
2022/06/07 14:08:13;;;;;;;;;;;16.20;99.90;;;;;;5095968;27;36804;-47
2022/06/07 14:10:40;;;;;;;;;;;16.20;99.90;;;;;;5096114;27;36138;-49
2022/06/07 14:13:07;;;;;;;;;;;16.30;99.90;;;;;;5095886;27;39121;-47
2022/06/07 14:15:36;;;;;;;;;;;16.30;99.90;;;;;;5094739;27;36328;-51
2022/06/07 14:18:03;;;;;;;;;;;16.30;99.90;;;;;;5095838;27;35653;-49
2022/06/07 14:20:33;;;;;;;;;;;16.20;99.90;;;;;;5096517;27;37216;-47
2022/06/07 14:23:01;;;;;;;;;;;16.20;99.90;;;;;;5096393;27;38811;-49
2022/06/07 14:25:28;;;;;;;;;;;16.20;99.90;;;;;;5095735;27;40921;-49
2022/06/07 14:27:56;;;;;;;;;;;16.20;99.90;;;;;;5096419;27;36584;-48
2022/06/07 14:30:24;;;;;;;;;;;16.30;99.90;;;;;;5096736;27;36057;-49
2022/06/07 14:32:54;;;;;;;;;;;16.20;99.90;;;;;;5097503;27;38120;-50
2022/06/07 14:35:22;;;;;;;;;;;16.30;99.90;;;;;;5095311;27;37856;-48
2022/06/07 14:37:50;;;;;;;;;;;16.30;99.90;;;;;;5099873;27;36956;-51
2022/06/07 14:40:19;;;;;;;;;;;16.30;99.90;;;;;;5101114;27;37851;-48
2022/06/07 14:42:46;;;;;;;;;;;16.30;99.90;;;;;;5099464;27;37547;-48
2022/06/07 14:45:15;;;;;;;;;;;16.30;99.90;;;;;;5100794;27;36130;-49
2022/06/07 14:47:43;;;;;;;;;;;16.40;99.90;;;;;;5099880;27;35592;-48
2022/06/07 14:50:13;;;;;;;;;;;16.40;99.90;;;;;;5100492;27;35111;-50
2022/06/07 14:52:40;;;;;;;;;;;16.40;99.90;;;;;;5098975;27;39346;-51
2022/06/07 14:55:10;;;;;;;;;;;16.30;99.90;;;;;;5099954;27;36271;-51
2022/06/07 14:57:39;;;;;;;;;;;16.30;99.90;;;;;;5099878;27;37632;-48
2022/06/07 15:00:07;;;;;;;;;;;16.30;99.90;;;;;;5100399;27;36648;-48
2022/06/07 15:02:35;;;;;;;;;;;16.30;99.90;;;;;;5100331;27;39107;-50